createdAt,value
2022-11-10T00:01:13.147Z,11.43
2022-11-10T00:04:00.969Z,11.77
2022-11-10T00:06:48.946Z,11.43
2022-11-10T00:09:36.182Z,11.43
2022-11-10T00:12:24.354Z,11.00
2022-11-10T00:15:30.951Z,12.13
2022-11-10T00:18:17.949Z,11.63
2022-11-10T00:21:07.992Z,12.05
2022-11-10T00:23:55.104Z,11.68
2022-11-10T00:26:43.001Z,12.13
2022-11-10T00:29:30.434Z,11.77
2022-11-10T00:32:19.185Z,12.88
2022-11-10T00:35:07.646Z,12.60
2022-11-10T00:37:55.477Z,13.52
2022-11-10T00:40:42.487Z,12.57
2022-11-10T00:43:31.033Z,12.52
2022-11-10T00:46:18.487Z,11.93
2022-11-10T00:49:07.109Z,12.52
2022-11-10T00:51:54.624Z,13.80
2022-11-10T00:54:42.160Z,13.05
2022-11-10T00:57:29.199Z,14.10
2022-11-10T01:00:18.013Z,12.73
2022-11-10T01:03:05.577Z,13.38
2022-11-10T01:05:54.028Z,11.88
2022-11-10T01:08:43.071Z,12.52
2022-11-10T01:11:30.489Z,12.45
2022-11-10T01:14:18.004Z,11.98
2022-11-10T01:17:05.625Z,12.10
2022-11-10T01:19:53.232Z,9.40
2022-11-10T01:22:42.194Z,7.78
2022-11-10T01:25:29.183Z,7.70
2022-11-10T01:28:17.180Z,5.03
2022-11-10T01:31:07.284Z,3.33
2022-11-10T01:33:55.446Z,3.22
2022-11-10T01:36:42.311Z,3.13
2022-11-10T01:39:31.547Z,2.72
2022-11-10T01:42:25.747Z,1.85
2022-11-10T01:45:46.416Z,2.10
2022-11-10T01:48:38.190Z,1.85
2022-11-10T01:51:28.999Z,1.58
2022-11-10T01:54:21.091Z,1.42
2022-11-10T01:57:13.617Z,1.63
2022-11-10T02:00:01.456Z,1.40
2022-11-10T02:02:54.275Z,1.52
2022-11-10T02:05:41.983Z,1.70
2022-11-10T02:08:29.958Z,2.15
2022-11-10T02:11:18.328Z,1.40
2022-11-10T02:14:08.231Z,1.20
2022-11-10T02:16:55.397Z,1.58
2022-11-10T02:19:43.729Z,1.90
2022-11-10T02:22:31.944Z,1.55
2022-11-10T02:25:22.762Z,1.83
2022-11-10T02:28:10.247Z,1.70
2022-11-10T02:30:57.041Z,1.88
2022-11-10T02:33:44.891Z,1.75
2022-11-10T02:36:32.514Z,1.75
2022-11-10T02:39:20.662Z,1.63
2022-11-10T02:42:10.699Z,2.13
2022-11-10T02:44:58.462Z,1.77
2022-11-10T02:47:45.990Z,1.83
2022-11-10T02:50:33.383Z,1.65
2022-11-10T02:53:21.720Z,2.05
2022-11-10T02:56:10.716Z,2.05
2022-11-10T02:58:58.605Z,1.67
2022-11-10T03:01:46.050Z,2.17
2022-11-10T03:04:33.425Z,2.30
2022-11-10T03:07:20.404Z,2.10
2022-11-10T03:10:09.293Z,2.35
2022-11-10T03:12:59.140Z,2.25
2022-11-10T03:15:48.793Z,2.00
2022-11-10T03:18:35.915Z,2.50
2022-11-10T03:21:23.863Z,2.47
2022-11-10T03:24:11.297Z,2.20
2022-11-10T03:26:59.278Z,1.88
2022-11-10T03:29:47.719Z,2.03
2022-11-10T03:32:35.620Z,1.73
2022-11-10T03:35:23.222Z,2.20
2022-11-10T03:38:10.274Z,2.42
2022-11-10T03:41:18.036Z,1.95
2022-11-10T03:44:05.789Z,2.08
2022-11-10T03:46:54.005Z,2.28
2022-11-10T03:49:42.405Z,2.40
2022-11-10T03:52:29.449Z,2.00
2022-11-10T03:55:19.459Z,2.30
2022-11-10T03:58:06.519Z,3.03
2022-11-10T04:00:54.912Z,2.58
2022-11-10T04:03:47.475Z,2.28
2022-11-10T04:06:55.027Z,2.33
2022-11-10T04:09:42.330Z,1.95
2022-11-10T04:12:47.024Z,2.13
2022-11-10T04:15:43.595Z,2.40
2022-11-10T04:18:31.327Z,2.85
2022-11-10T04:21:19.408Z,3.65
2022-11-10T04:24:08.282Z,3.20
2022-11-10T04:26:55.522Z,2.50
2022-11-10T04:29:42.890Z,2.67
2022-11-10T04:32:29.865Z,3.72
2022-11-10T04:35:17.304Z,2.80
2022-11-10T04:38:06.243Z,3.80
2022-11-10T04:40:53.632Z,3.55
2022-11-10T04:43:42.365Z,3.40
2022-11-10T04:46:32.157Z,2.92
2022-11-10T04:49:19.868Z,3.30
2022-11-10T04:52:08.668Z,3.15
2022-11-10T04:54:58.105Z,3.75
2022-11-10T04:57:45.054Z,3.65
2022-11-10T05:00:32.803Z,4.25
2022-11-10T05:03:20.222Z,4.25
2022-11-10T05:06:08.806Z,5.05
2022-11-10T05:08:55.938Z,4.43
2022-11-10T05:11:44.647Z,4.05
2022-11-10T05:14:31.743Z,4.03
2022-11-10T05:17:18.907Z,4.25
2022-11-10T05:20:06.694Z,3.92
2022-11-10T05:23:11.911Z,4.00
2022-11-10T05:25:59.038Z,4.18
2022-11-10T05:28:47.996Z,3.72
2022-11-10T05:31:34.682Z,3.85
2022-11-10T05:34:22.190Z,3.63
2022-11-10T05:37:09.269Z,3.58
2022-11-10T05:39:56.880Z,3.88
2022-11-10T05:42:44.664Z,4.13
2022-11-10T05:45:34.150Z,5.30
2022-11-10T05:48:21.030Z,6.22
2022-11-10T05:51:08.882Z,8.50
2022-11-10T05:53:55.783Z,7.00
2022-11-10T05:56:43.822Z,5.35
2022-11-10T05:59:30.768Z,6.20
2022-11-10T06:02:19.179Z,5.70
2022-11-10T06:05:07.835Z,6.60
2022-11-10T06:07:55.017Z,6.25
2022-11-10T06:10:42.302Z,5.65
2022-11-10T06:13:29.364Z,6.45
2022-11-10T06:16:16.387Z,6.32
2022-11-10T06:19:05.007Z,6.50
2022-11-10T06:21:57.078Z,5.93
2022-11-10T06:24:47.831Z,5.55
2022-11-10T06:27:35.062Z,5.53
2022-11-10T06:30:22.118Z,5.68
2022-11-10T06:33:10.924Z,6.07
2022-11-10T06:35:59.892Z,5.93
2022-11-10T06:38:47.187Z,5.50
2022-11-10T06:41:34.619Z,6.55
2022-11-10T06:44:22.105Z,6.13
2022-11-10T06:47:09.278Z,6.78
2022-11-10T06:49:56.843Z,6.07
2022-11-10T06:52:45.363Z,6.43
2022-11-10T06:55:33.607Z,7.65
2022-11-10T06:58:20.502Z,5.90
2022-11-10T07:01:07.838Z,6.97
2022-11-10T07:04:18.233Z,7.55
2022-11-10T07:07:02.826Z,7.18
2022-11-10T07:09:51.206Z,6.63
2022-11-10T07:12:38.508Z,6.75
2022-11-10T07:15:25.984Z,7.07
2022-11-10T07:18:13.792Z,6.72
2022-11-10T07:21:03.299Z,7.20
2022-11-10T07:23:51.310Z,6.93
2022-11-10T07:26:39.646Z,6.50
2022-11-10T07:29:27.196Z,8.07
2022-11-10T07:32:14.872Z,7.95
2022-11-10T07:35:02.593Z,8.20
2022-11-10T07:37:49.553Z,6.80
2022-11-10T07:40:37.955Z,7.15
2022-11-10T07:43:26.965Z,7.32
2022-11-10T07:46:14.682Z,7.32
2022-11-10T07:49:01.804Z,7.75
2022-11-10T07:51:48.714Z,6.95
2022-11-10T07:54:36.173Z,7.03
2022-11-10T07:57:23.299Z,7.55
2022-11-10T08:00:14.228Z,8.60
2022-11-10T08:03:05.712Z,8.20
2022-11-10T08:05:53.095Z,8.48
2022-11-10T08:08:39.918Z,8.27
2022-11-10T08:11:27.264Z,8.70
2022-11-10T08:14:14.377Z,7.22
2022-11-10T08:17:03.749Z,7.63
2022-11-10T08:19:50.703Z,7.13
2022-11-10T08:22:38.242Z,6.90
2022-11-10T08:25:26.378Z,7.75
2022-11-10T08:28:17.814Z,7.18
2022-11-10T08:31:06.304Z,6.43
2022-11-10T08:33:55.225Z,6.63
2022-11-10T08:36:42.828Z,5.78
2022-11-10T08:39:39.134Z,4.93
2022-11-10T08:42:26.134Z,4.80
2022-11-10T08:45:13.853Z,4.93
2022-11-10T08:48:02.651Z,4.13
2022-11-10T08:50:53.030Z,3.35
2022-11-10T08:53:39.886Z,3.75
2022-11-10T08:56:27.101Z,3.88
2022-11-10T08:59:14.805Z,3.60
2022-11-10T09:02:01.757Z,2.90
2022-11-10T09:04:49.724Z,3.78
2022-11-10T09:07:45.969Z,3.70
2022-11-10T09:10:33.215Z,3.67
2022-11-10T09:13:27.745Z,3.40
2022-11-10T09:16:16.651Z,3.20
2022-11-10T09:19:04.175Z,3.33
2022-11-10T09:21:51.356Z,2.83
2022-11-10T09:24:39.597Z,3.55
2022-11-10T09:27:26.822Z,2.67
2022-11-10T09:30:17.949Z,3.08
2022-11-10T09:33:10.295Z,2.75
2022-11-10T09:36:01.967Z,2.72
2022-11-10T09:38:49.797Z,2.78
2022-11-10T09:41:41.828Z,2.78
2022-11-10T09:44:34.967Z,2.55
2022-11-10T09:47:55.668Z,2.40
2022-11-10T09:50:41.534Z,2.05
2022-11-10T09:53:35.530Z,2.33
2022-11-10T09:56:31.269Z,2.20
2022-11-10T09:59:26.537Z,1.67
2022-11-10T10:02:23.951Z,1.80
2022-11-10T10:05:46.513Z,2.17
2022-11-10T10:08:46.409Z,2.22
2022-11-10T10:11:44.154Z,1.70
2022-11-10T10:14:49.462Z,2.15
2022-11-10T10:17:41.705Z,2.25
2022-11-10T10:20:36.273Z,1.80
2022-11-10T10:23:54.353Z,1.88
2022-11-10T10:26:43.210Z,1.80
2022-11-10T10:29:37.880Z,1.73
2022-11-10T10:32:27.930Z,1.85
2022-11-10T10:35:16.681Z,2.08
2022-11-10T10:38:06.026Z,1.83
2022-11-10T10:40:58.356Z,1.42
2022-11-10T10:43:49.996Z,2.13
2022-11-10T10:46:46.231Z,1.65
2022-11-10T10:49:36.311Z,1.80
2022-11-10T10:52:25.343Z,1.70
2022-11-10T10:55:15.235Z,1.60
2022-11-10T10:58:04.207Z,1.70
2022-11-10T11:00:55.332Z,1.70
2022-11-10T11:03:44.501Z,1.50
2022-11-10T11:06:35.376Z,1.73
2022-11-10T11:09:25.327Z,1.60
2022-11-10T11:12:15.083Z,1.60
2022-11-10T11:15:22.059Z,2.38
2022-11-10T11:18:16.320Z,1.35
2022-11-10T11:21:10.299Z,1.63
2022-11-10T11:24:13.670Z,2.05
2022-11-10T11:27:05.996Z,1.48
2022-11-10T11:30:05.872Z,1.75
2022-11-10T11:33:14.756Z,1.88
2022-11-10T11:36:10.398Z,1.95
2022-11-10T11:39:05.839Z,1.40
2022-11-10T11:42:05.699Z,1.60
2022-11-10T11:45:05.108Z,1.58
2022-11-10T11:48:12.038Z,1.40
2022-11-10T11:51:06.740Z,2.15
2022-11-10T11:54:13.907Z,1.80
2022-11-10T11:57:15.010Z,1.70
2022-11-10T12:00:10.391Z,1.30
2022-11-10T12:03:23.389Z,1.30
2022-11-10T12:06:28.138Z,1.50
2022-11-10T12:09:24.047Z,1.80
2022-11-10T12:12:33.429Z,1.30
2022-11-10T12:15:30.019Z,1.25
2022-11-10T12:18:30.463Z,1.48
2022-11-10T12:21:25.845Z,1.30
2022-11-10T12:24:36.176Z,1.42
2022-11-10T12:27:29.646Z,1.60
2022-11-10T12:30:19.231Z,1.60
2022-11-10T12:33:14.413Z,1.40
2022-11-10T12:36:04.375Z,1.50
2022-11-10T12:39:00.096Z,1.20
2022-11-10T12:41:50.854Z,1.30
2022-11-10T12:44:44.566Z,1.08
2022-11-10T12:47:37.040Z,1.42
2022-11-10T12:50:45.567Z,1.13
2022-11-10T12:53:34.865Z,1.08
2022-11-10T12:56:27.918Z,0.95
2022-11-10T12:59:23.439Z,1.17
2022-11-10T13:02:24.816Z,1.08
2022-11-10T13:05:24.835Z,1.30
2022-11-10T13:08:25.547Z,1.48
2022-11-10T13:11:27.120Z,1.30
2022-11-10T13:14:23.707Z,1.05
2022-11-10T13:17:12.762Z,1.02
2022-11-10T13:20:20.481Z,0.80
2022-11-10T13:23:23.399Z,1.10
2022-11-10T13:26:11.899Z,1.13
2022-11-10T13:29:02.659Z,1.65
2022-11-10T13:31:57.733Z,1.38
2022-11-10T13:34:46.061Z,1.30
2022-11-10T13:37:51.011Z,1.05
2022-11-10T13:40:39.624Z,1.35
2022-11-10T13:43:29.056Z,1.10
2022-11-10T13:46:16.116Z,1.27
2022-11-10T13:49:39.419Z,1.40
2022-11-10T13:52:45.488Z,1.10
2022-11-10T13:55:49.050Z,1.00
2022-11-10T13:58:37.686Z,1.27
2022-11-10T14:01:28.992Z,1.23
2022-11-10T14:04:42.300Z,1.50
2022-11-10T14:07:32.585Z,1.33
2022-11-10T14:10:35.722Z,1.08
2022-11-10T14:13:29.306Z,1.15
2022-11-10T14:16:23.215Z,1.75
2022-11-10T14:19:25.697Z,1.13
2022-11-10T14:22:23.843Z,1.77
2022-11-10T14:25:20.326Z,1.70
2022-11-10T14:28:26.076Z,2.80
2022-11-10T14:31:20.623Z,3.95
2022-11-10T14:34:14.131Z,2.92
2022-11-10T14:37:04.894Z,3.85
2022-11-10T14:39:55.796Z,4.15
2022-11-10T14:42:42.911Z,2.35
2022-11-10T14:45:31.719Z,1.50
2022-11-10T14:48:21.202Z,2.53
2022-11-10T14:51:14.126Z,3.10
2022-11-10T14:54:02.695Z,2.08
2022-11-10T14:56:50.568Z,1.95
2022-11-10T14:59:38.828Z,2.38
2022-11-10T15:02:26.924Z,2.60
2022-11-10T15:05:16.861Z,2.30
2022-11-10T15:08:05.381Z,3.70
2022-11-10T15:10:56.624Z,3.75
2022-11-10T15:13:43.931Z,2.90
2022-11-10T15:16:32.874Z,2.08
2022-11-10T15:19:28.590Z,2.47
2022-11-10T15:22:20.752Z,1.67
2022-11-10T15:25:16.284Z,1.83
2022-11-10T15:28:06.890Z,1.65
2022-11-10T15:30:56.483Z,1.48
2022-11-10T15:33:48.265Z,1.50
2022-11-10T15:36:39.563Z,1.60
2022-11-10T15:39:28.758Z,1.65
2022-11-10T15:42:17.963Z,1.80
2022-11-10T15:45:05.319Z,2.17
2022-11-10T15:47:52.543Z,1.98
2022-11-10T15:50:39.744Z,2.30
2022-11-10T15:53:31.384Z,2.63
2022-11-10T15:56:20.504Z,32.78
2022-11-10T15:59:07.826Z,39.08
2022-11-10T16:01:55.363Z,40.38
2022-11-10T16:04:42.610Z,16.15
2022-11-10T16:07:29.619Z,13.48
2022-11-10T16:10:18.273Z,12.63
2022-11-10T16:13:05.479Z,10.80
2022-11-10T16:15:52.943Z,10.18
2022-11-10T16:18:43.849Z,5.00
2022-11-10T16:21:31.270Z,5.55
2022-11-10T16:24:18.502Z,4.80
2022-11-10T16:27:09.080Z,5.40
2022-11-10T16:29:56.150Z,3.88
2022-11-10T16:32:43.355Z,3.20
2022-11-10T16:35:30.426Z,3.83
2022-11-10T16:38:20.740Z,4.18
2022-11-10T16:41:14.104Z,4.60
2022-11-10T16:44:03.283Z,4.38
2022-11-10T16:46:54.549Z,4.60
2022-11-10T16:49:46.034Z,5.90
2022-11-10T16:52:33.372Z,4.13
2022-11-10T16:55:20.278Z,4.25
2022-11-10T16:58:07.993Z,4.45
2022-11-10T17:01:00.738Z,4.43
2022-11-10T17:03:51.329Z,4.13
2022-11-10T17:06:39.012Z,4.57
2022-11-10T17:09:27.104Z,4.82
2022-11-10T17:12:15.152Z,4.80
2022-11-10T17:15:02.805Z,4.22
2022-11-10T17:17:54.242Z,4.25
2022-11-10T17:20:44.282Z,4.35
2022-11-10T17:23:31.837Z,4.18
2022-11-10T17:26:20.785Z,4.00
2022-11-10T17:29:07.783Z,4.10
2022-11-10T17:31:56.048Z,4.15
2022-11-10T17:34:44.430Z,4.15
2022-11-10T17:37:31.934Z,5.05
2022-11-10T17:40:21.655Z,3.65
2022-11-10T17:43:11.469Z,4.45
2022-11-10T17:46:00.126Z,4.13
2022-11-10T17:48:47.853Z,4.60
2022-11-10T17:51:37.601Z,6.32
2022-11-10T17:54:25.771Z,6.63
2022-11-10T17:57:13.095Z,6.60
2022-11-10T18:00:00.102Z,6.13
2022-11-10T18:02:54.162Z,10.02
2022-11-10T18:05:43.313Z,7.47
2022-11-10T18:08:32.509Z,6.95
2022-11-10T18:11:20.158Z,13.60
2022-11-10T18:14:07.281Z,9.18
2022-11-10T18:16:54.209Z,7.43
2022-11-10T18:19:42.137Z,6.25
2022-11-10T18:22:29.213Z,6.20
2022-11-10T18:25:18.192Z,5.65
2022-11-10T18:28:05.164Z,4.82
2022-11-10T18:30:51.817Z,5.28
2022-11-10T18:33:39.571Z,5.53
2022-11-10T18:36:26.830Z,5.25
2022-11-10T18:39:14.346Z,5.18
2022-11-10T18:42:02.801Z,7.47
2022-11-10T18:44:51.947Z,7.97
2022-11-10T18:47:40.289Z,5.05
2022-11-10T18:50:27.255Z,4.07
2022-11-10T18:53:14.407Z,3.65
2022-11-10T18:56:01.385Z,3.25
2022-11-10T18:58:56.442Z,3.67
2022-11-10T19:01:44.280Z,3.55
2022-11-10T19:04:31.171Z,4.18
2022-11-10T19:07:18.210Z,3.42
2022-11-10T19:10:06.535Z,3.17
2022-11-10T19:12:53.064Z,2.88
2022-11-10T19:15:42.666Z,4.05
2022-11-10T19:18:30.272Z,3.92
2022-11-10T19:21:19.746Z,4.72
2022-11-10T19:24:07.235Z,5.68
2022-11-10T19:26:54.774Z,8.65
2022-11-10T19:29:41.945Z,8.20
2022-11-10T19:32:32.186Z,8.27
2022-11-10T19:35:19.858Z,7.28
2022-11-10T19:38:07.283Z,7.38
2022-11-10T19:40:55.151Z,7.60
2022-11-10T19:43:47.134Z,10.50
2022-11-10T19:46:37.606Z,7.22
2022-11-10T19:49:25.870Z,7.20
2022-11-10T19:52:13.346Z,6.80
2022-11-10T19:55:00.449Z,7.22
2022-11-10T19:57:47.705Z,6.13
2022-11-10T20:00:35.967Z,6.07
2022-11-10T20:03:23.489Z,6.90
2022-11-10T20:06:13.855Z,8.07
2022-11-10T20:09:00.750Z,29.40
2022-11-10T20:11:48.198Z,15.10
2022-11-10T20:14:35.323Z,8.90
2022-11-10T20:17:23.535Z,8.93
2022-11-10T20:20:10.564Z,9.05
2022-11-10T20:23:03.253Z,8.85
2022-11-10T20:25:50.363Z,8.23
2022-11-10T20:28:39.375Z,7.88
2022-11-10T20:31:27.003Z,9.50
2022-11-10T20:34:15.209Z,7.70
2022-11-10T20:37:01.906Z,6.68
2022-11-10T20:39:50.228Z,6.88
2022-11-10T20:42:42.390Z,7.40
2022-11-10T20:45:29.769Z,6.80
2022-11-10T20:48:16.670Z,8.97
2022-11-10T20:51:10.154Z,6.40
2022-11-10T20:53:59.227Z,6.50
2022-11-10T20:56:48.727Z,5.50
2022-11-10T20:59:36.364Z,5.15
2022-11-10T21:02:23.750Z,4.77
2022-11-10T21:05:10.704Z,4.20
2022-11-10T21:07:58.054Z,5.32
2022-11-10T21:10:51.124Z,5.50
2022-11-10T21:13:40.043Z,6.50
2022-11-10T21:16:27.321Z,6.65
2022-11-10T21:19:14.341Z,7.18
2022-11-10T21:22:01.574Z,7.10
2022-11-10T21:24:49.146Z,6.23
2022-11-10T21:27:36.230Z,7.13
2022-11-10T21:30:24.497Z,9.20
2022-11-10T21:33:12.027Z,7.70
2022-11-10T21:35:59.058Z,7.13
2022-11-10T21:38:47.131Z,7.80
2022-11-10T21:41:34.091Z,7.03
2022-11-10T21:44:21.882Z,6.90
2022-11-10T21:47:10.502Z,6.87
2022-11-10T21:49:57.775Z,6.78
2022-11-10T21:52:44.765Z,6.90
2022-11-10T21:55:32.143Z,6.43
2022-11-10T21:58:19.243Z,6.43
2022-11-10T22:01:08.659Z,6.87
2022-11-10T22:03:56.955Z,6.20
2022-11-10T22:07:10.361Z,6.95
2022-11-10T22:10:14.996Z,7.22
2022-11-10T22:13:20.352Z,6.43
2022-11-10T22:16:39.191Z,6.80
2022-11-10T22:19:27.610Z,5.90
2022-11-10T22:22:15.594Z,5.23
2022-11-10T22:25:02.273Z,5.30
2022-11-10T22:27:49.882Z,5.30
2022-11-10T22:30:37.396Z,5.53
2022-11-10T22:33:34.614Z,6.57
2022-11-10T22:36:23.169Z,5.53
2022-11-10T22:39:10.560Z,6.73
2022-11-10T22:42:15.745Z,5.00
2022-11-10T22:45:02.966Z,5.00
2022-11-10T22:48:07.662Z,6.30
2022-11-10T22:50:55.536Z,6.07
2022-11-10T22:53:43.875Z,5.50
2022-11-10T22:56:33.205Z,5.20
2022-11-10T22:59:21.027Z,5.37
2022-11-10T23:02:08.583Z,5.00
2022-11-10T23:04:55.484Z,5.23
2022-11-10T23:07:42.833Z,4.90
2022-11-10T23:10:31.711Z,4.47
2022-11-10T23:13:19.293Z,4.80
2022-11-10T23:16:08.858Z,4.60
2022-11-10T23:18:56.766Z,4.80
2022-11-10T23:21:44.838Z,6.40
2022-11-10T23:24:31.693Z,5.90
2022-11-10T23:27:20.439Z,5.97
2022-11-10T23:30:08.884Z,7.00
2022-11-10T23:32:56.061Z,5.87
2022-11-10T23:35:43.551Z,5.90
2022-11-10T23:38:31.625Z,5.63
2022-11-10T23:41:21.886Z,5.93
2022-11-10T23:44:10.809Z,6.03
2022-11-10T23:46:57.814Z,4.83
2022-11-10T23:49:45.825Z,5.30
2022-11-10T23:52:33.105Z,4.57
2022-11-10T23:55:20.461Z,4.57
2022-11-10T23:58:07.806Z,5.00
